Time;durP1;ratioP1;P1;durP2;ratioP2;P2;SDS_P1;SDS_P2;PMS_P1;PMS_P2;Temp;Humidity;BMP_temperature;BMP_pressure;BME280_temperature;BME280_humidity;BME280_pressure;Samples;Min_cycle;Max_cycle;Signal;HPM_P1;HPM_P2
2022/04/01 00:02:19;;;;;;;4.15;2.47;;;2.90;99.90;;;;;;5025842;28;20059;-66
2022/04/01 00:04:44;;;;;;;3.78;2.38;;;3.00;99.90;;;;;;5018151;28;20114;-66
2022/04/01 00:07:11;;;;;;;4.45;1.63;;;3.10;99.90;;;;;;5014275;28;20096;-66
2022/04/01 00:09:37;;;;;;;4.78;1.98;;;3.10;99.90;;;;;;5017240;28;20041;-66
2022/04/01 00:12:04;;;;;;;5.03;1.83;;;3.20;99.90;;;;;;5023653;28;20051;-66
2022/04/01 00:14:30;;;;;;;4.88;1.73;;;3.10;99.90;;;;;;5031158;28;20048;-66
2022/04/01 00:16:56;;;;;;;4.55;2.50;;;3.20;99.90;;;;;;5021957;28;20046;-67
2022/04/01 00:19:21;;;;;;;4.10;1.67;;;3.00;99.90;;;;;;5014051;28;20038;-66
2022/04/01 00:21:47;;;;;;;6.53;1.80;;;3.10;99.90;;;;;;5017133;28;20567;-66
2022/04/01 00:24:12;;;;;;;4.78;1.55;;;3.00;99.90;;;;;;5036858;28;20045;-66
2022/04/01 00:26:38;;;;;;;5.30;1.90;;;3.10;99.90;;;;;;5022205;28;20515;-67
2022/04/01 00:29:15;;;;;;;3.08;1.98;;;3.10;99.90;;;;;;5029292;28;20049;-66
2022/04/01 00:31:48;;;;;;;4.35;1.67;;;3.00;99.90;;;;;;5031397;28;20049;-67
2022/04/01 00:34:17;;;;;;;12.45;2.17;;;3.00;99.90;;;;;;5027100;28;20063;-66
2022/04/01 00:36:47;;;;;;;6.18;1.92;;;3.10;99.90;;;;;;5025518;28;20057;-66
2022/04/01 00:39:14;;;;;;;4.15;2.13;;;3.10;99.90;;;;;;5028222;28;20101;-66
2022/04/01 00:41:40;;;;;;;2.40;1.48;;;3.00;99.90;;;;;;5018900;28;20053;-66
2022/04/01 00:44:18;;;;;;;9.48;2.33;;;2.90;99.90;;;;;;5027949;28;20664;-66
2022/04/01 00:46:45;;;;;;;4.82;1.90;;;3.00;99.90;;;;;;5016883;28;20060;-66
2022/04/01 00:49:11;;;;;;;5.53;2.00;;;3.00;99.90;;;;;;5031183;28;20048;-66
2022/04/01 00:51:41;;;;;;;5.05;2.78;;;3.00;99.90;;;;;;5020472;28;20049;-66
2022/04/01 00:54:08;;;;;;;4.00;1.67;;;2.90;99.90;;;;;;5026183;28;20646;-66
2022/04/01 00:56:35;;;;;;;6.80;2.63;;;2.90;99.90;;;;;;5021883;28;20127;-66
2022/04/01 00:59:02;;;;;;;14.20;2.17;;;2.90;99.90;;;;;;5022759;28;20046;-66
2022/04/01 01:01:30;;;;;;;4.13;1.90;;;3.00;99.90;;;;;;5022138;28;20049;-66
2022/04/01 01:03:55;;;;;;;4.70;1.83;;;2.90;99.90;;;;;;5027530;28;20134;-66
2022/04/01 01:06:21;;;;;;;9.02;2.53;;;2.90;99.90;;;;;;5013149;28;20167;-67
2022/04/01 01:08:48;;;;;;;5.22;1.73;;;2.90;99.90;;;;;;5017762;28;20133;-66
2022/04/01 01:11:14;;;;;;;9.95;2.25;;;3.10;99.90;;;;;;5021976;28;20437;-67
2022/04/01 01:13:40;;;;;;;4.63;2.05;;;3.00;99.90;;;;;;5023688;28;20047;-67
2022/04/01 01:16:07;;;;;;;8.32;1.85;;;3.00;99.90;;;;;;5029433;28;20401;-67
2022/04/01 01:18:33;;;;;;;8.52;2.47;;;3.00;99.90;;;;;;5025787;28;20037;-68
2022/04/01 01:20:59;;;;;;;7.32;2.53;;;3.10;99.90;;;;;;5015979;28;20046;-67
2022/04/01 01:23:29;;;;;;;6.18;1.92;;;2.90;99.90;;;;;;5020403;28;20412;-67
2022/04/01 01:25:55;;;;;;;6.60;2.35;;;3.10;99.90;;;;;;5029001;28;20042;-67
2022/04/01 01:28:23;;;;;;;3.88;2.08;;;3.10;99.90;;;;;;5017151;28;20057;-67
2022/04/01 01:30:49;;;;;;;4.85;2.15;;;3.10;99.90;;;;;;5025020;28;20060;-67
2022/04/01 01:33:15;;;;;;;3.22;1.90;;;3.10;99.90;;;;;;5020636;28;20041;-67
2022/04/01 01:35:41;;;;;;;6.60;1.67;;;3.20;99.90;;;;;;5019712;28;20049;-67
2022/04/01 01:38:08;;;;;;;3.67;2.30;;;3.20;99.90;;;;;;5019111;28;20042;-67
2022/04/01 01:40:34;;;;;;;5.72;2.70;;;3.10;99.90;;;;;;5018430;28;22355;-67
2022/04/01 01:43:00;;;;;;;14.82;4.32;;;3.10;99.90;;;;;;5021287;28;20037;-67
2022/04/01 01:45:29;;;;;;;7.90;2.75;;;3.10;99.90;;;;;;5029052;28;20396;-67
2022/04/01 01:47:55;;;;;;;9.95;2.67;;;3.00;99.90;;;;;;5022827;28;20056;-67
2022/04/01 01:55:49;;;;;;;4.47;1.92;;;3.10;99.90;;;;;;5021286;28;20046;-67
2022/04/01 01:58:15;;;;;;;7.75;2.40;;;3.10;99.90;;;;;;5026845;28;20484;-67
2022/04/01 02:00:41;;;;;;;10.85;3.45;;;3.10;99.90;;;;;;5024460;28;20042;-65
2022/04/01 02:03:06;;;;;;;5.28;2.42;;;3.10;99.90;;;;;;5023705;28;20048;-65
2022/04/01 02:05:34;;;;;;;5.80;2.47;;;3.20;99.90;;;;;;5014439;28;20068;-65
2022/04/01 02:08:00;;;;;;;5.85;3.08;;;3.10;99.90;;;;;;5029613;28;20083;-65
2022/04/01 02:10:26;;;;;;;5.45;2.13;;;3.10;99.90;;;;;;5023961;28;20053;-65
2022/04/01 02:12:52;;;;;;;5.22;2.00;;;3.10;99.90;;;;;;5020625;28;20129;-65
2022/04/01 02:15:18;;;;;;;10.77;3.33;;;3.20;99.90;;;;;;5025970;28;20061;-66
2022/04/01 02:17:44;;;;;;;5.20;2.55;;;3.30;99.90;;;;;;5018405;28;20132;-65
2022/04/01 02:20:10;;;;;;;8.13;2.30;;;3.20;99.90;;;;;;5016527;28;20383;-65
2022/04/01 02:22:37;;;;;;;10.10;3.17;;;3.20;99.90;;;;;;5014072;28;20076;-65
2022/04/01 02:25:04;;;;;;;5.95;1.80;;;3.20;99.90;;;;;;5018789;28;20033;-65
2022/04/01 02:27:30;;;;;;;9.93;2.42;;;3.20;99.90;;;;;;5029151;28;20046;-65
2022/04/01 02:29:57;;;;;;;5.63;2.28;;;3.30;99.90;;;;;;5027855;28;20041;-65
2022/04/01 02:32:23;;;;;;;7.60;2.40;;;3.20;99.90;;;;;;5022983;28;20452;-65
2022/04/01 02:34:49;;;;;;;4.55;2.05;;;3.20;99.90;;;;;;5019656;28;20069;-65
2022/04/01 02:37:16;;;;;;;6.15;2.63;;;3.20;99.90;;;;;;5019230;28;20556;-65
2022/04/01 02:39:42;;;;;;;7.40;2.33;;;3.20;99.90;;;;;;5021153;28;20072;-65
2022/04/01 02:42:08;;;;;;;6.30;2.33;;;3.30;99.90;;;;;;5014980;28;20081;-65
2022/04/01 02:44:34;;;;;;;10.23;2.40;;;3.30;99.90;;;;;;5022588;28;20100;-65
2022/04/01 02:46:59;;;;;;;5.05;2.15;;;3.20;99.90;;;;;;5017066;28;20513;-65
2022/04/01 02:49:25;;;;;;;12.85;2.30;;;3.20;99.90;;;;;;5014744;28;20059;-65
2022/04/01 02:51:53;;;;;;;4.65;1.98;;;3.20;99.90;;;;;;5011779;28;20088;-65
2022/04/01 02:54:20;;;;;;;7.38;1.85;;;3.30;99.90;;;;;;5016209;28;20041;-65
2022/04/01 02:56:46;;;;;;;6.20;2.22;;;3.20;99.90;;;;;;5027901;28;20063;-66
2022/04/01 02:59:12;;;;;;;10.43;2.83;;;3.20;99.90;;;;;;5028446;28;20037;-66
2022/04/01 03:01:39;;;;;;;3.90;1.67;;;3.10;99.90;;;;;;5018856;28;20053;-66
2022/04/01 03:04:10;;;;;;;8.82;1.75;;;3.20;99.90;;;;;;5030345;28;20073;-66
2022/04/01 03:06:39;;;;;;;6.50;1.73;;;3.20;99.90;;;;;;5025543;28;20045;-66
2022/04/01 03:09:09;;;;;;;7.18;1.83;;;3.30;99.90;;;;;;5020836;28;20046;-66
2022/04/01 03:11:38;;;;;;;4.28;2.13;;;3.30;99.90;;;;;;5013200;28;20107;-66
2022/04/01 03:14:05;;;;;;;10.25;2.20;;;3.20;99.90;;;;;;5027253;28;20045;-66
2022/04/01 03:16:31;;;;;;;5.45;1.70;;;3.20;99.90;;;;;;5024749;28;20053;-66
2022/04/01 03:18:57;;;;;;;5.43;2.15;;;3.20;99.90;;;;;;5011942;28;20531;-66
2022/04/01 03:21:24;;;;;;;8.00;1.65;;;3.20;99.90;;;;;;5023425;28;20053;-66
2022/04/01 03:23:50;;;;;;;6.85;2.00;;;3.20;99.90;;;;;;5023544;28;20092;-66
2022/04/01 03:26:16;;;;;;;6.40;2.33;;;3.20;99.90;;;;;;5014933;28;20082;-66
2022/04/01 03:28:41;;;;;;;4.13;2.00;;;3.20;99.90;;;;;;5019845;28;20037;-66
2022/04/01 03:31:09;;;;;;;3.92;1.95;;;3.30;99.90;;;;;;5023444;28;20060;-66
2022/04/01 03:33:36;;;;;;;5.47;2.17;;;3.30;99.90;;;;;;5013877;28;20046;-66
2022/04/01 03:36:03;;;;;;;5.40;1.83;;;3.30;99.90;;;;;;5028367;28;20050;-67
2022/04/01 03:38:29;;;;;;;5.47;1.98;;;3.40;99.90;;;;;;5028307;28;20049;-67
2022/04/01 03:40:55;;;;;;;3.90;1.50;;;3.30;99.90;;;;;;5017989;28;20045;-66
2022/04/01 03:43:23;;;;;;;3.63;1.67;;;3.40;99.90;;;;;;5015133;28;20049;-67
2022/04/01 03:45:50;;;;;;;5.43;2.15;;;3.30;99.90;;;;;;5017692;28;20046;-66
2022/04/01 03:48:28;;;;;;;5.78;2.00;;;3.20;99.90;;;;;;5018507;28;20515;-66
2022/04/01 03:50:58;;;;;;;8.25;2.00;;;3.20;99.90;;;;;;5017390;28;20169;-66
2022/04/01 03:53:27;;;;;;;9.00;1.98;;;3.20;99.90;;;;;;5011236;28;20386;-66
2022/04/01 03:55:55;;;;;;;4.28;2.25;;;3.20;99.90;;;;;;5027619;28;20118;-66
2022/04/01 03:58:29;;;;;;;6.35;2.15;;;3.30;99.90;;;;;;5022945;28;20041;-66
2022/04/01 04:00:58;;;;;;;8.63;2.05;;;3.30;99.90;;;;;;5021362;28;20049;-66
2022/04/01 04:03:25;;;;;;;8.05;2.33;;;3.40;99.90;;;;;;5026724;28;20416;-66
2022/04/01 04:05:51;;;;;;;7.63;2.63;;;3.30;99.90;;;;;;5020823;28;20081;-66
2022/04/01 04:08:19;;;;;;;4.28;2.10;;;3.30;99.90;;;;;;5019362;28;20056;-66
2022/04/01 04:10:49;;;;;;;6.72;2.63;;;3.30;99.90;;;;;;5025617;28;20509;-66
2022/04/01 04:13:16;;;;;;;10.07;2.00;;;3.30;99.90;;;;;;5023727;28;20144;-66
2022/04/01 04:15:51;;;;;;;3.05;1.73;;;3.40;99.90;;;;;;5016452;28;20046;-66
2022/04/01 04:18:19;;;;;;;5.47;2.33;;;3.40;99.90;;;;;;5020440;28;20057;-67
2022/04/01 04:21:10;;;;;;;6.13;2.13;;;3.40;99.90;;;;;;5008454;28;20088;-66
2022/04/01 04:23:44;;;;;;;6.15;2.55;;;3.40;99.90;;;;;;5018752;28;20045;-66
2022/04/01 04:26:13;;;;;;;8.80;2.20;;;3.50;99.90;;;;;;5022045;28;20045;-66
2022/04/01 04:28:40;;;;;;;5.97;1.85;;;3.40;99.90;;;;;;5015280;28;20101;-67
2022/04/01 04:31:09;;;;;;;8.18;2.22;;;3.40;99.90;;;;;;5008191;28;20519;-67
2022/04/01 04:33:42;;;;;;;8.70;2.50;;;3.50;99.90;;;;;;5020921;28;20100;-66
2022/04/01 04:36:10;;;;;;;;;;;3.50;99.90;;;;;;5022982;28;20057;-66
2022/04/01 04:38:40;;;;;;;4.80;1.92;;;3.40;99.90;;;;;;5025410;28;20020;-67
2022/04/01 04:41:10;;;;;;;5.80;2.33;;;3.40;99.90;;;;;;5021435;28;20132;-67
2022/04/01 04:43:38;;;;;;;9.00;2.70;;;3.30;99.90;;;;;;5018811;28;20121;-67
2022/04/01 04:46:05;;;;;;;8.02;2.35;;;3.30;99.90;;;;;;5022053;28;20069;-67
2022/04/01 04:48:33;;;;;;;7.30;2.28;;;3.40;99.90;;;;;;5035817;28;20041;-67
2022/04/01 04:51:02;;;;;;;10.32;2.45;;;3.40;99.90;;;;;;5026020;28;20117;-67
2022/04/01 04:53:30;;;;;;;6.03;2.90;;;3.40;99.90;;;;;;5012287;28;20042;-67
2022/04/01 04:55:58;;;;;;;5.05;2.30;;;3.40;99.90;;;;;;5027859;28;20104;-67
2022/04/01 04:58:29;;;;;;;5.32;2.45;;;3.40;99.90;;;;;;5018084;28;20528;-67
2022/04/01 05:01:03;;;;;;;4.95;2.90;;;3.40;99.90;;;;;;5020273;28;20126;-66
2022/04/01 05:03:46;;;;;;;7.00;2.72;;;3.40;99.90;;;;;;5013411;28;20082;-67
2022/04/01 05:06:17;;;;;;;7.47;3.08;;;3.40;99.90;;;;;;5023240;28;20041;-66
2022/04/01 05:08:46;;;;;;;10.65;2.95;;;3.60;99.90;;;;;;5021888;28;20041;-66
2022/04/01 05:11:45;;;;;;;9.02;3.10;;;3.50;99.90;;;;;;5029590;28;20475;-66
2022/04/01 05:14:35;;;;;;;7.95;2.55;;;3.60;99.90;;;;;;5017981;28;20478;-66
2022/04/01 05:17:04;;;;;;;12.60;2.72;;;3.60;99.90;;;;;;5020123;28;20715;-67
2022/04/01 05:19:31;;;;;;;10.68;3.08;;;3.50;99.90;;;;;;5025566;28;20564;-67
2022/04/01 05:22:07;;;;;;;7.38;2.90;;;3.50;99.90;;;;;;5018832;28;20049;-66
2022/04/01 05:24:44;;;;;;;5.55;2.78;;;3.50;99.90;;;;;;5015551;28;20049;-67
2022/04/01 05:27:26;;;;;;;6.65;2.70;;;3.60;99.90;;;;;;5010787;28;20121;-67
2022/04/01 05:30:16;;;;;;;6.07;2.80;;;3.70;99.90;;;;;;5026094;28;20502;-67
2022/04/01 05:33:06;;;;;;;10.75;2.97;;;3.70;99.90;;;;;;5016499;28;20084;-67
2022/04/01 05:35:35;;;;;;;21.83;3.65;;;3.70;99.90;;;;;;5020074;28;20038;-67
2022/04/01 05:38:00;;;;;;;6.50;3.35;;;3.70;99.90;;;;;;5026557;28;20045;-66
2022/04/01 05:40:28;;;;;;;7.88;3.05;;;3.60;99.90;;;;;;5021020;28;20121;-67
2022/04/01 05:42:55;;;;;;;8.65;3.53;;;3.60;99.90;;;;;;5017649;28;20084;-66
2022/04/01 05:45:23;;;;;;;11.57;2.30;;;3.60;99.90;;;;;;5023960;28;20049;-66
2022/04/01 05:47:49;;;;;;;11.40;2.72;;;3.70;99.90;;;;;;5022880;28;20052;-67
2022/04/01 05:50:20;;;;;;;7.65;2.60;;;3.70;99.90;;;;;;5029436;28;20045;-66
2022/04/01 05:52:50;;;;;;;10.27;2.53;;;3.60;99.90;;;;;;5017030;28;20081;-66
2022/04/01 05:55:19;;;;;;;9.15;2.58;;;3.70;99.90;;;;;;5018293;28;20037;-66
2022/04/01 05:57:45;;;;;;;6.90;2.10;;;3.70;99.90;;;;;;5028927;28;20520;-66
2022/04/01 06:00:12;;;;;;;7.57;2.90;;;3.70;99.90;;;;;;5026373;28;20061;-66
2022/04/01 06:03:11;;;;;;;12.68;3.20;;;3.70;99.90;;;;;;5017864;28;20049;-66
2022/04/01 06:06:03;;;;;;;8.30;2.97;;;3.70;99.90;;;;;;5021034;28;20050;-67
2022/04/01 06:08:45;;;;;;;12.75;4.18;;;3.70;99.90;;;;;;5016970;28;20076;-66
2022/04/01 06:11:16;;;;;;;14.52;4.57;;;3.60;99.90;;;;;;5028303;28;20045;-66
2022/04/01 06:14:02;;;;;;;11.25;3.63;;;3.70;99.90;;;;;;5022603;28;20603;-66
2022/04/01 06:16:42;;;;;;;9.27;2.83;;;3.80;99.90;;;;;;5016570;28;20083;-66
2022/04/01 06:19:30;;;;;;;17.42;4.53;;;3.70;99.90;;;;;;5019781;28;20100;-67
2022/04/01 06:22:03;;;;;;;9.63;2.85;;;3.70;99.90;;;;;;5013846;28;20124;-67
2022/04/01 06:24:58;;;;;;;11.23;3.05;;;3.70;99.90;;;;;;5019015;28;20079;-67
2022/04/01 06:27:45;;;;;;;11.82;2.55;;;3.60;99.90;;;;;;5023931;28;20045;-67
2022/04/01 06:30:17;;;;;;;7.30;2.63;;;3.80;99.90;;;;;;5014190;28;20108;-67
2022/04/01 06:32:54;;;;;;;11.38;2.92;;;3.70;99.90;;;;;;5027238;28;20129;-67
2022/04/01 06:35:35;;;;;;;10.45;2.40;;;3.70;99.90;;;;;;5012322;28;20045;-67
2022/04/01 06:38:01;;;;;;;5.72;3.40;;;3.70;99.90;;;;;;5015527;28;20117;-66
2022/04/01 06:40:56;;;;;;;7.43;2.60;;;3.70;99.90;;;;;;5014480;28;20034;-67
2022/04/01 06:43:23;;;;;;;5.82;2.92;;;3.70;99.90;;;;;;5014059;28;20073;-66
2022/04/01 06:45:48;;;;;;;10.02;2.20;;;3.80;99.90;;;;;;5028941;28;20663;-67
2022/04/01 06:48:14;;;;;;;7.65;2.53;;;3.80;99.90;;;;;;5029045;28;20052;-67
2022/04/01 06:50:49;;;;;;;7.10;2.17;;;3.90;99.90;;;;;;5015290;28;20107;-67
2022/04/01 06:53:17;;;;;;;11.73;3.78;;;3.80;99.90;;;;;;5017593;28;20054;-67
2022/04/01 06:55:44;;;;;;;6.85;2.35;;;4.00;99.90;;;;;;5028065;28;20397;-66
2022/04/01 06:58:11;;;;;;;8.75;2.35;;;4.20;99.90;;;;;;5030169;28;20090;-66
2022/04/01 07:00:40;;;;;;;7.40;2.88;;;4.00;99.90;;;;;;5013296;28;20141;-66
2022/04/01 07:03:07;;;;;;;9.80;2.20;;;4.10;99.90;;;;;;5014551;28;20050;-66
2022/04/01 07:05:36;;;;;;;7.30;2.78;;;4.10;99.90;;;;;;5008905;28;20396;-67
2022/04/01 07:08:03;;;;;;;6.50;1.77;;;4.10;99.90;;;;;;5017590;28;20096;-67
2022/04/01 07:10:28;;;;;;;6.10;2.47;;;4.20;99.90;;;;;;5014116;28;20878;-66
2022/04/01 07:12:54;;;;;;;9.50;2.35;;;4.10;99.90;;;;;;5024805;28;20042;-66
2022/04/01 07:15:19;;;;;;;5.70;1.73;;;4.10;99.90;;;;;;5023151;28;22013;-66
2022/04/01 07:17:45;;;;;;;5.03;2.08;;;4.20;99.90;;;;;;5025294;28;20049;-67
2022/04/01 07:20:15;;;;;;;11.05;3.30;;;4.30;99.90;;;;;;5033827;28;20068;-66
2022/04/01 07:22:41;;;;;;;5.97;2.15;;;4.30;99.90;;;;;;5026308;28;20128;-66
2022/04/01 07:25:08;;;;;;;7.97;2.97;;;4.60;99.90;;;;;;5022328;28;20129;-66
2022/04/01 07:27:34;;;;;;;11.18;2.55;;;4.50;99.90;;;;;;5022951;28;20576;-66
2022/04/01 07:30:00;;;;;;;7.05;2.90;;;4.40;99.90;;;;;;5020010;28;20044;-66
2022/04/01 07:32:32;;;;;;;9.95;2.95;;;4.40;99.90;;;;;;5016557;28;20050;-66
2022/04/01 07:34:59;;;;;;;9.02;2.85;;;4.40;99.90;;;;;;5012256;28;20057;-65
2022/04/01 07:37:25;;;;;;;19.83;3.60;;;4.40;99.90;;;;;;5015055;28;20046;-64
2022/04/01 07:39:54;;;;;;;6.97;2.65;;;4.50;99.90;;;;;;5019967;28;20056;-65
2022/04/01 07:42:21;;;;;;;9.93;2.25;;;4.60;99.90;;;;;;5023723;28;20064;-65
2022/04/01 07:44:50;;;;;;;11.43;2.50;;;4.50;99.90;;;;;;5021778;28;20099;-65
2022/04/01 07:47:18;;;;;;;6.13;1.73;;;4.60;99.90;;;;;;5030253;28;20141;-66
2022/04/01 07:49:45;;;;;;;6.38;2.35;;;4.70;99.90;;;;;;5027711;28;20049;-67
2022/04/01 07:52:12;;;;;;;13.10;2.80;;;4.60;99.90;;;;;;5014616;28;20144;-66
2022/04/01 07:54:40;;;;;;;6.75;2.53;;;4.80;99.90;;;;;;5028595;28;20045;-66
2022/04/01 07:57:07;;;;;;;11.20;2.22;;;5.10;99.90;;;;;;5022992;28;20049;-67
2022/04/01 07:59:34;;;;;;;5.43;1.63;;;5.20;99.90;;;;;;5032064;28;20037;-66
2022/04/01 08:02:00;;;;;;;6.90;1.95;;;5.10;99.90;;;;;;5020737;28;20054;-67
2022/04/01 08:04:27;;;;;;;8.98;1.80;;;5.10;99.90;;;;;;5017313;28;20162;-67
2022/04/01 08:06:56;;;;;;;12.38;3.10;;;5.10;99.90;;;;;;5024603;28;20053;-66
2022/04/01 08:09:23;;;;;;;7.38;1.95;;;5.30;99.90;;;;;;5024826;28;20490;-67
2022/04/01 08:11:49;;;;;;;7.45;2.15;;;5.20;99.90;;;;;;5023021;28;20064;-66
2022/04/01 08:14:17;;;;;;;8.63;2.90;;;5.10;99.90;;;;;;5014418;28;20048;-66
2022/04/01 08:16:43;;;;;;;7.75;2.65;;;5.10;99.90;;;;;;5022536;28;20393;-67
2022/04/01 08:19:09;;;;;;;6.97;2.65;;;5.30;99.90;;;;;;5028292;28;20055;-67
2022/04/01 08:21:35;;;;;;;8.48;2.90;;;5.40;99.90;;;;;;5025147;28;20045;-66
2022/04/01 08:24:00;;;;;;;9.07;2.70;;;5.50;99.90;;;;;;5019288;28;20477;-66
2022/04/01 08:26:26;;;;;;;8.30;2.78;;;5.40;99.90;;;;;;5022434;28;20057;-66
2022/04/01 08:28:52;;;;;;;7.85;2.13;;;5.60;99.90;;;;;;5026001;28;20037;-66
2022/04/01 08:31:20;;;;;;;9.20;2.63;;;5.80;99.90;;;;;;5017059;28;20061;-67
2022/04/01 08:33:46;;;;;;;6.28;2.42;;;5.80;99.90;;;;;;5022055;28;20049;-66
2022/04/01 08:36:12;;;;;;;4.18;1.70;;;6.00;99.90;;;;;;5025186;28;20507;-67
2022/04/01 08:38:37;;;;;;;9.30;3.85;;;6.20;99.90;;;;;;5031078;28;20128;-66
2022/04/01 08:41:03;;;;;;;10.57;2.35;;;6.40;99.90;;;;;;5019211;28;20282;-66
2022/04/01 08:43:32;;;;;;;8.98;2.65;;;6.60;99.90;;;;;;5025925;28;20047;-66
2022/04/01 08:46:00;;;;;;;4.80;2.15;;;6.80;99.90;;;;;;5027218;28;20046;-66
2022/04/01 08:48:27;;;;;;;7.70;2.97;;;6.70;99.90;;;;;;5024051;28;20041;-66
2022/04/01 08:50:54;;;;;;;7.30;2.55;;;6.80;99.90;;;;;;5029557;28;20409;-66
2022/04/01 08:53:20;;;;;;;7.40;3.17;;;6.70;99.90;;;;;;5018575;28;20151;-66
2022/04/01 08:55:56;;;;;;;8.95;2.50;;;6.60;99.90;;;;;;5023376;28;20049;-66
2022/04/01 08:58:23;;;;;;;12.82;2.78;;;6.60;99.90;;;;;;5029142;28;20049;-66
2022/04/01 09:00:50;;;;;;;11.43;3.53;;;6.60;99.90;;;;;;5019330;28;20499;-66
2022/04/01 09:03:19;;;;;;;9.20;2.92;;;6.50;99.90;;;;;;5021493;28;20041;-67
2022/04/01 09:05:51;;;;;;;7.85;2.60;;;6.60;99.90;;;;;;5030649;28;20481;-66
2022/04/01 09:08:26;;;;;;;8.35;2.42;;;6.70;99.90;;;;;;5021162;28;20041;-67
2022/04/01 09:10:53;;;;;;;11.07;4.30;;;6.60;99.90;;;;;;5018981;28;20049;-66
2022/04/01 09:13:20;;;;;;;9.90;2.80;;;6.70;99.90;;;;;;5022969;28;20045;-65
2022/04/01 09:15:46;;;;;;;11.07;4.05;;;6.80;99.90;;;;;;5024171;28;20057;-64
2022/04/01 09:18:12;;;;;;;10.02;2.97;;;6.80;99.90;;;;;;5026371;28;20052;-65
2022/04/01 09:20:45;;;;;;;4.78;1.90;;;6.80;99.90;;;;;;5023815;28;20067;-65
2022/04/01 09:23:11;;;;;;;;;;;6.70;99.90;;;;;;5012036;28;20046;-65
2022/04/01 09:25:45;;;;;;;5.15;2.75;;;6.70;99.90;;;;;;5018570;28;19928;-65
2022/04/01 09:28:32;;;;;;;5.32;2.05;;;6.70;99.90;;;;;;5026581;28;20037;-65
2022/04/01 09:31:16;;;;;;;6.22;1.60;;;6.70;99.90;;;;;;5026114;28;20401;-65
2022/04/01 09:33:45;;;;;;;;;;;6.80;99.90;;;;;;5030590;28;20046;-65
2022/04/01 09:36:24;;;;;;;5.70;2.13;;;6.90;99.90;;;;;;5030136;28;20291;-65
2022/04/01 09:38:51;;;;;;;4.70;2.00;;;7.00;99.90;;;;;;5017482;28;20075;-64
2022/04/01 09:41:18;;;;;;;3.55;1.80;;;7.20;99.90;;;;;;5025989;28;20127;-65
2022/04/01 09:43:44;;;;;;;3.97;1.60;;;7.30;99.90;;;;;;5015353;28;20668;-65
2022/04/01 09:46:26;;;;;;;4.78;1.90;;;7.40;99.90;;;;;;5025544;28;20152;-65
2022/04/01 09:48:56;;;;;;;3.65;1.55;;;7.60;99.90;;;;;;5030303;28;20103;-65
2022/04/01 09:51:22;;;;;;;10.18;1.83;;;7.80;99.90;;;;;;5026711;28;20056;-65
2022/04/01 09:53:53;;;;;;;2.30;1.20;;;7.60;99.90;;;;;;5013281;28;20425;-65
2022/04/01 09:56:34;;;;;;;3.05;1.45;;;7.60;99.90;;;;;;5022629;28;20485;-65
2022/04/01 09:58:59;;;;;;;4.45;2.25;;;7.80;99.90;;;;;;5025864;28;20136;-65
2022/04/01 10:01:25;;;;;;;3.72;1.83;;;7.80;99.90;;;;;;5028051;28;20565;-65
2022/04/01 10:03:51;;;;;;;5.75;1.40;;;7.90;99.90;;;;;;5030277;28;20037;-65
2022/04/01 10:06:17;;;;;;;7.18;1.80;;;7.70;99.90;;;;;;5023487;28;20038;-65
2022/04/01 10:08:43;;;;;;;5.15;2.05;;;7.90;99.90;;;;;;5025096;28;20204;-66
2022/04/01 10:11:10;;;;;;;2.97;1.92;;;7.80;99.90;;;;;;5027384;28;20053;-67
2022/04/01 10:13:36;;;;;;;8.77;2.90;;;8.00;99.90;;;;;;5028637;28;20076;-67
2022/04/01 10:16:04;;;;;;;8.15;3.33;;;8.00;99.90;;;;;;5018864;28;20516;-67
2022/04/01 10:18:31;;;;;;;11.70;4.32;;;7.80;99.90;;;;;;5021125;28;20132;-67
2022/04/01 10:21:00;;;;;;;10.55;3.53;;;7.60;99.90;;;;;;5013896;28;20531;-67
2022/04/01 10:23:27;;;;;;;8.52;1.92;;;7.50;99.90;;;;;;5020892;28;20065;-67
2022/04/01 10:26:09;;;;;;;4.13;2.28;;;7.40;99.90;;;;;;5029518;28;20592;-67
2022/04/01 10:28:34;;;;;;;4.28;1.67;;;7.30;99.90;;;;;;5024322;28;20046;-67
2022/04/01 10:31:02;;;;;;;10.23;2.70;;;7.40;99.90;;;;;;5010773;28;20050;-67
2022/04/01 10:33:38;;;;;;;2.70;1.20;;;7.30;99.90;;;;;;5025003;28;20670;-67
2022/04/01 10:36:26;;;;;;;5.68;1.95;;;7.40;99.90;;;;;;5024836;28;20267;-67
2022/04/01 10:39:00;;;;;;;3.95;1.90;;;7.50;99.90;;;;;;5026256;28;20053;-67
2022/04/01 10:41:26;;;;;;;4.22;2.00;;;7.50;99.90;;;;;;5010325;28;20076;-67
2022/04/01 10:43:55;;;;;;;9.73;3.88;;;7.20;99.90;;;;;;5020877;28;20104;-67
2022/04/01 10:46:20;;;;;;;4.88;2.60;;;7.20;99.90;;;;;;5016238;28;20049;-67
2022/04/01 10:52:04;;;;;;;6.93;2.80;;;7.10;99.90;;;;;;5022687;28;20100;-66
2022/04/01 10:54:30;;;;;;;16.10;5.13;;;7.20;99.90;;;;;;5024011;28;20704;-67
2022/04/01 10:57:05;;;;;;;4.63;1.48;;;7.10;99.90;;;;;;5024226;28;20128;-67
2022/04/01 10:59:42;;;;;;;2.85;1.58;;;7.00;99.90;;;;;;5027264;28;20428;-67
2022/04/01 11:02:10;;;;;;;4.93;1.90;;;7.10;99.90;;;;;;5023612;28;20060;-66
2022/04/01 11:04:44;;;;;;;7.10;1.85;;;7.20;99.90;;;;;;5026319;28;20108;-66
2022/04/01 11:07:28;;;;;;;9.43;2.28;;;7.10;99.90;;;;;;5025288;28;20049;-67
2022/04/01 11:10:01;;;;;;;8.38;2.45;;;7.10;99.90;;;;;;5021792;28;20041;-67
2022/04/01 11:12:29;;;;;;;7.15;2.38;;;6.90;99.90;;;;;;5028031;28;20567;-67
2022/04/01 11:15:07;;;;;;;5.05;2.13;;;6.80;99.90;;;;;;5017062;28;20044;-67
2022/04/01 11:17:44;;;;;;;14.40;1.85;;;6.70;99.90;;;;;;5016150;28;20591;-67
2022/04/01 11:20:12;;;;;;;7.28;2.20;;;6.60;99.90;;;;;;5023879;28;20049;-69
2022/04/01 11:22:47;;;;;;;6.65;2.38;;;6.60;99.90;;;;;;5017872;28;20560;-67
2022/04/01 11:25:24;;;;;;;13.98;4.57;;;6.60;99.90;;;;;;5008796;28;20061;-67
2022/04/01 11:27:59;;;;;;;7.63;2.95;;;6.60;99.90;;;;;;5012538;28;20053;-67
2022/04/01 11:30:32;;;;;;;8.77;1.80;;;6.60;99.90;;;;;;5021113;28;20538;-67
2022/04/01 11:33:01;;;;;;;7.18;2.03;;;6.70;99.90;;;;;;5009615;28;20065;-67
2022/04/01 11:35:29;;;;;;;5.20;2.60;;;6.70;99.90;;;;;;5024237;28;20073;-67
2022/04/01 11:37:56;;;;;;;6.68;2.08;;;6.70;99.90;;;;;;5026312;28;20037;-67
2022/04/01 11:40:30;;;;;;;6.15;1.88;;;6.90;99.90;;;;;;5009381;28;20091;-67
2022/04/01 11:42:57;;;;;;;3.42;1.83;;;6.90;99.90;;;;;;5020363;28;20061;-67
2022/04/01 11:45:24;;;;;;;5.05;1.67;;;6.90;99.90;;;;;;5016484;28;20100;-67
2022/04/01 11:47:49;;;;;;;6.65;1.92;;;7.00;99.90;;;;;;5011618;28;20563;-67
2022/04/01 11:50:17;;;;;;;4.20;2.05;;;7.10;99.90;;;;;;5024097;28;20049;-67
2022/04/01 11:52:45;;;;;;;9.45;2.50;;;7.00;99.90;;;;;;5021156;28;20056;-67
2022/04/01 11:55:26;;;;;;;6.85;1.75;;;7.30;99.90;;;;;;5014690;28;20045;-67
2022/04/01 11:57:57;;;;;;;5.95;1.88;;;7.60;99.90;;;;;;5028193;28;20436;-67
2022/04/01 12:00:25;;;;;;;5.47;1.42;;;8.10;99.90;;;;;;5024987;28;20064;-67
2022/04/01 12:02:52;;;;;;;5.13;1.77;;;8.50;99.90;;;;;;5018358;28;20056;-67
2022/04/01 12:05:19;;;;;;;7.07;1.90;;;8.60;99.90;;;;;;5023041;28;20120;-67
2022/04/01 12:10:54;;;;;;;12.18;2.03;;;8.40;99.90;;;;;;5026886;28;20176;-67
2022/04/01 12:13:21;;;;;;;4.97;1.42;;;8.00;99.90;;;;;;5014332;28;20137;-67
2022/04/01 12:15:48;;;;;;;5.05;2.22;;;8.00;99.90;;;;;;5017642;28;20049;-67
2022/04/01 12:18:17;;;;;;;10.00;2.78;;;7.80;99.90;;;;;;5018712;28;20103;-67
2022/04/01 12:20:52;;;;;;;9.65;2.92;;;7.80;99.90;;;;;;5031060;28;20049;-67
2022/04/01 12:23:22;;;;;;;7.72;1.85;;;8.10;99.90;;;;;;5016154;28;20046;-67
2022/04/01 12:25:53;;;;;;;11.35;3.40;;;8.30;99.90;;;;;;5012680;28;20152;-67
2022/04/01 12:28:23;;;;;;;10.43;1.92;;;8.50;99.90;;;;;;5011595;28;20096;-67
2022/04/01 12:30:54;;;;;;;8.60;2.13;;;8.80;99.90;;;;;;5014654;28;20053;-67
2022/04/01 12:33:25;;;;;;;4.65;1.85;;;8.80;99.90;;;;;;5011832;28;20446;-67
2022/04/01 12:35:59;;;;;;;6.18;2.10;;;9.00;99.90;;;;;;5011491;28;20716;-67
2022/04/01 12:38:28;;;;;;;11.32;3.72;;;9.10;99.90;;;;;;5010992;28;20041;-67
2022/04/01 12:41:01;;;;;;;4.93;2.08;;;9.20;99.90;;;;;;5016268;28;20042;-67
2022/04/01 12:44:11;;;;;;;5.72;2.28;;;9.30;99.90;;;;;;5010324;28;20049;-67
2022/04/01 12:46:37;;;;;;;8.15;2.75;;;9.40;99.90;;;;;;5063926;28;20044;-67
2022/04/01 12:49:12;;;;;;;8.88;3.10;;;9.30;99.70;;;;;;5068417;28;20895;-67
2022/04/01 12:51:47;;;;;;;4.20;1.63;;;8.90;99.10;;;;;;5036866;28;20050;-67
2022/04/01 12:54:27;;;;;;;4.53;2.13;;;9.10;99.10;;;;;;5010508;28;20054;-67
2022/04/01 12:56:53;;;;;;;3.75;1.85;;;9.00;98.70;;;;;;5010309;28;20105;-67
2022/04/01 12:59:23;;;;;;;7.53;2.30;;;9.10;98.50;;;;;;5010721;28;20041;-67
2022/04/01 13:02:04;;;;;;;9.55;2.50;;;9.20;99.30;;;;;;5010679;28;20058;-67
2022/04/01 13:04:38;;;;;;;5.90;2.13;;;9.50;99.90;;;;;;5009534;28;20374;-66
2022/04/01 13:07:15;;;;;;;9.02;4.70;;;9.40;96.80;;;;;;5011325;28;20088;-66
2022/04/01 13:09:56;;;;;;;6.38;3.10;;;9.20;97.90;;;;;;5028127;28;20057;-67
2022/04/01 13:12:32;;;;;;;10.20;2.53;;;9.20;97.70;;;;;;5028930;28;20060;-66
2022/04/01 13:15:13;;;;;;;4.18;1.85;;;9.40;97.70;;;;;;5024586;28;20077;-67
2022/04/01 13:17:50;;;;;;;7.10;1.83;;;9.50;96.20;;;;;;5010241;28;20108;-66
2022/04/01 13:20:19;;;;;;;8.95;1.65;;;10.10;97.70;;;;;;5010551;28;20104;-66
2022/04/01 13:22:45;;;;;;;10.43;3.38;;;10.30;97.00;;;;;;5013667;28;20050;-66